Mao, Dominican Republic
Current Conditions -  °F | °C
As of 5:00 PM on Saturday 25 Oct 2014 (Local Time) from MDST Reporting Station
Scattered Clouds Scattered Clouds  
Wind Chill: 32°   Ceiling: Unl
Heat Index: 37°   Visibility: 6mi
Dew Point: 23°   Wind: 13mph
Humidity: 59%   Direction: 110°ESE
Pressure: 29.77"   Gusts: NA
Location:  19.56°N, 71.08°W
Report Text: MDST 252100Z 11011KT 9999 SCT027 SCT300 32/23 Q1008
Loading
Personal Weather Stations






























Interactive Weather Map
Tropical Storm Tracking
New forecast layout! Learn more

10-Day Weather Forecast

Advertisements
Track Severe Weather on mobile